createdAt,value
2023-07-05T00:01:16.152Z,15.60
2023-07-05T00:03:44.307Z,19.02
2023-07-05T00:06:12.387Z,17.42
2023-07-05T00:08:41.228Z,20.52
2023-07-05T00:11:12.296Z,17.33
2023-07-05T00:13:40.940Z,18.88
2023-07-05T00:16:11.882Z,23.05
2023-07-05T00:18:40.414Z,21.17
2023-07-05T00:21:11.240Z,19.17
2023-07-05T00:23:40.920Z,20.30
2023-07-05T00:26:10.284Z,20.35
2023-07-05T00:28:38.312Z,20.58
2023-07-05T00:31:07.473Z,15.30
2023-07-05T00:33:36.354Z,17.92
2023-07-05T00:36:04.595Z,16.05
2023-07-05T00:38:32.645Z,21.27
2023-07-05T00:41:00.729Z,21.42
2023-07-05T00:43:30.335Z,19.92
2023-07-05T00:46:00.829Z,21.00
2023-07-05T00:48:35.647Z,24.40
2023-07-05T00:51:07.035Z,18.85
2023-07-05T00:53:38.074Z,18.60
2023-07-05T00:56:11.877Z,24.40
2023-07-05T00:58:43.121Z,22.80
2023-07-05T01:01:11.410Z,24.20
2023-07-05T01:03:40.334Z,23.95
2023-07-05T01:06:09.242Z,18.73
2023-07-05T01:08:37.674Z,19.70
2023-07-05T01:11:14.514Z,28.40
2023-07-05T01:13:48.274Z,26.52
2023-07-05T01:16:28.809Z,23.33
2023-07-05T01:19:03.294Z,29.83
2023-07-05T01:21:44.261Z,21.90
2023-07-05T01:24:32.511Z,24.40
2023-07-05T01:27:29.497Z,20.73
2023-07-05T01:30:25.404Z,22.80
2023-07-05T01:32:58.643Z,21.90
2023-07-05T01:35:29.815Z,22.10
2023-07-05T01:37:58.554Z,19.38
2023-07-05T01:40:52.560Z,20.38
2023-07-05T01:43:21.398Z,23.27
2023-07-05T01:46:00.330Z,24.90
2023-07-05T01:48:39.287Z,18.98
2023-07-05T01:51:14.275Z,18.67
2023-07-05T01:53:49.651Z,19.70
2023-07-05T01:56:22.548Z,18.02
2023-07-05T01:58:53.216Z,21.70
2023-07-05T02:01:24.475Z,24.48
2023-07-05T02:03:55.026Z,21.13
2023-07-05T02:06:24.124Z,21.70
2023-07-05T02:08:52.803Z,22.20
2023-07-05T02:11:20.816Z,18.48
2023-07-05T02:13:48.934Z,17.90
2023-07-05T02:16:16.944Z,18.77
2023-07-05T02:18:44.992Z,24.08
2023-07-05T02:21:14.414Z,22.48
2023-07-05T02:23:42.457Z,20.83
2023-07-05T02:26:10.602Z,19.13
2023-07-05T02:28:38.604Z,21.67
2023-07-05T02:31:08.333Z,18.92
2023-07-05T02:33:36.824Z,19.55
2023-07-05T02:36:11.029Z,21.02
2023-07-05T02:38:41.662Z,24.85
2023-07-05T02:41:10.185Z,17.10
2023-07-05T02:43:38.247Z,14.10
2023-07-05T02:46:07.478Z,20.13
2023-07-05T02:48:35.495Z,17.27
2023-07-05T02:51:03.524Z,17.23
2023-07-05T02:53:31.541Z,22.88
2023-07-05T02:56:01.035Z,25.65
2023-07-05T02:58:29.027Z,18.45
2023-07-05T03:00:57.109Z,19.50
2023-07-05T03:03:25.310Z,17.73
2023-07-05T03:05:58.051Z,22.40
2023-07-05T03:08:27.336Z,16.95
2023-07-05T03:10:56.104Z,19.65
2023-07-05T03:13:28.891Z,19.50
2023-07-05T03:15:57.378Z,22.77
2023-07-05T03:18:25.971Z,22.67
2023-07-05T03:20:54.935Z,22.90
2023-07-05T03:23:23.355Z,20.52
2023-07-05T03:25:59.131Z,19.70
2023-07-05T03:28:30.331Z,20.48
2023-07-05T03:31:00.857Z,18.83
2023-07-05T03:33:29.612Z,22.92
2023-07-05T03:35:58.737Z,21.52
2023-07-05T03:38:28.459Z,27.02
2023-07-05T03:41:01.155Z,21.02
2023-07-05T03:43:32.212Z,19.80
2023-07-05T03:46:01.698Z,21.05
2023-07-05T03:48:31.998Z,24.25
2023-07-05T03:51:01.141Z,21.75
2023-07-05T03:53:29.651Z,23.90
2023-07-05T03:56:01.847Z,23.02
2023-07-05T03:58:31.986Z,21.30
2023-07-05T04:01:07.853Z,24.05
2023-07-05T04:03:36.529Z,23.63
2023-07-05T04:06:04.666Z,19.23
2023-07-05T04:08:32.807Z,24.85
2023-07-05T04:11:00.987Z,29.42
2023-07-05T04:13:30.485Z,25.85
2023-07-05T04:16:03.241Z,25.70
2023-07-05T04:18:32.531Z,28.45
2023-07-05T04:21:01.162Z,21.08
2023-07-05T04:23:29.422Z,30.88
2023-07-05T04:26:01.937Z,26.70
2023-07-05T04:28:32.355Z,23.90
2023-07-05T04:31:00.907Z,25.40
2023-07-05T04:33:29.133Z,25.98
2023-07-05T04:35:59.110Z,26.33
2023-07-05T04:38:27.899Z,22.83
2023-07-05T04:40:56.487Z,25.05
2023-07-05T04:43:24.854Z,26.73
2023-07-05T04:45:55.660Z,26.50
2023-07-05T04:48:25.825Z,24.75
2023-07-05T04:50:56.422Z,20.83
2023-07-05T04:53:25.806Z,28.10
2023-07-05T04:55:55.603Z,24.27
2023-07-05T04:58:24.320Z,20.25
2023-07-05T05:00:54.784Z,20.67
2023-07-05T05:03:24.581Z,22.88
2023-07-05T05:05:55.450Z,21.30
2023-07-05T05:08:25.059Z,19.98
2023-07-05T05:10:54.632Z,22.52
2023-07-05T05:13:23.766Z,21.58
2023-07-05T05:15:53.412Z,19.02
2023-07-05T05:18:21.795Z,19.83
2023-07-05T05:20:51.321Z,18.13
2023-07-05T05:23:19.664Z,18.58
2023-07-05T05:25:48.806Z,15.82
2023-07-05T05:28:17.648Z,19.00
2023-07-05T05:30:46.975Z,20.73
2023-07-05T05:33:18.217Z,18.52
2023-07-05T05:35:50.086Z,15.38
2023-07-05T05:38:18.600Z,18.27
2023-07-05T05:40:47.378Z,15.88
2023-07-05T05:43:15.630Z,14.75
2023-07-05T05:45:44.373Z,17.05
2023-07-05T05:48:12.566Z,11.73
2023-07-05T05:50:42.006Z,15.30
2023-07-05T05:53:11.635Z,13.38
2023-07-05T05:55:40.169Z,16.08
2023-07-05T05:58:08.948Z,15.30
2023-07-05T06:00:37.636Z,17.88
2023-07-05T06:03:05.981Z,14.05
2023-07-05T06:05:34.366Z,13.52
2023-07-05T06:08:03.731Z,17.58
2023-07-05T06:10:32.419Z,14.52
2023-07-05T06:13:00.476Z,14.20
2023-07-05T06:15:28.682Z,14.63
2023-07-05T06:17:56.813Z,14.18
2023-07-05T06:20:25.381Z,12.98
2023-07-05T06:22:53.388Z,12.40
2023-07-05T06:25:22.731Z,13.65
2023-07-05T06:27:50.753Z,16.58
2023-07-05T06:30:20.481Z,16.05
2023-07-05T06:32:48.516Z,14.75
2023-07-05T06:35:16.915Z,13.98
2023-07-05T06:37:45.863Z,13.27
2023-07-05T06:40:14.781Z,14.45
2023-07-05T06:42:44.160Z,14.45
2023-07-05T06:45:12.411Z,17.02
2023-07-05T06:47:40.528Z,14.52
2023-07-05T06:50:09.855Z,14.30
2023-07-05T06:52:38.385Z,12.55
2023-07-05T06:55:07.066Z,13.60
2023-07-05T06:57:35.340Z,14.10
2023-07-05T07:00:07.463Z,13.60
2023-07-05T07:02:35.776Z,11.35
2023-07-05T07:05:03.952Z,11.82
2023-07-05T07:07:31.960Z,11.05
2023-07-05T07:09:59.959Z,11.00
2023-07-05T07:12:29.608Z,10.15
2023-07-05T07:14:57.593Z,10.30
2023-07-05T07:17:27.019Z,11.07
2023-07-05T07:19:55.071Z,11.32
2023-07-05T07:22:23.141Z,13.65
2023-07-05T07:24:52.223Z,12.57
2023-07-05T07:27:20.665Z,9.95
2023-07-05T07:29:48.716Z,11.68
2023-07-05T07:32:16.698Z,11.27
2023-07-05T07:34:46.133Z,9.45
2023-07-05T07:37:14.208Z,10.48
2023-07-05T07:39:42.208Z,10.30
2023-07-05T07:42:10.539Z,12.45
2023-07-05T07:44:38.578Z,12.45
2023-07-05T07:47:07.964Z,11.05
2023-07-05T07:49:35.943Z,12.90
2023-07-05T07:52:06.129Z,10.02
2023-07-05T07:54:34.667Z,13.10
2023-07-05T07:57:02.731Z,9.93
2023-07-05T07:59:30.765Z,9.63
2023-07-05T08:01:58.927Z,10.00
2023-07-05T08:04:28.566Z,9.45
2023-07-05T08:06:56.931Z,14.52
2023-07-05T08:09:28.562Z,11.18
2023-07-05T08:11:57.125Z,8.15
2023-07-05T08:14:25.398Z,9.60
2023-07-05T08:16:53.656Z,12.35
2023-07-05T08:19:22.415Z,11.00
2023-07-05T08:21:51.233Z,11.70
2023-07-05T08:26:51.602Z,11.15
2023-07-05T08:29:19.738Z,11.40
2023-07-05T08:31:49.289Z,12.20
2023-07-05T08:34:17.697Z,9.27
2023-07-05T08:36:47.460Z,11.95
2023-07-05T08:39:15.926Z,11.13
2023-07-05T08:42:03.782Z,11.57
2023-07-05T08:44:46.691Z,10.70
2023-07-05T08:47:23.734Z,11.43
2023-07-05T08:50:06.186Z,10.02
2023-07-05T08:52:43.627Z,10.23
2023-07-05T08:55:16.505Z,9.73
2023-07-05T08:57:52.146Z,11.23
2023-07-05T09:00:25.915Z,11.20
2023-07-05T09:02:54.569Z,10.85
2023-07-05T09:05:31.366Z,8.88
2023-07-05T09:08:15.392Z,14.05
2023-07-05T09:10:48.423Z,12.43
2023-07-05T09:13:25.666Z,11.77
2023-07-05T09:16:01.338Z,10.82
2023-07-05T09:18:49.290Z,13.43
2023-07-05T09:21:30.966Z,12.93
2023-07-05T09:24:05.349Z,8.30
2023-07-05T09:26:38.500Z,12.77
2023-07-05T09:29:14.543Z,13.23
2023-07-05T09:31:45.093Z,10.18
2023-07-05T09:34:28.931Z,13.98
2023-07-05T09:36:57.073Z,8.93
2023-07-05T09:39:51.450Z,8.77
2023-07-05T09:42:28.375Z,9.32
2023-07-05T09:44:58.342Z,11.70
2023-07-05T09:47:26.638Z,11.45
2023-07-05T09:49:54.665Z,7.72
2023-07-05T09:52:26.120Z,11.70
2023-07-05T09:55:00.519Z,10.63
2023-07-05T09:57:28.609Z,8.25
2023-07-05T10:00:05.077Z,8.75
2023-07-05T10:02:33.992Z,8.65
2023-07-05T10:05:15.674Z,12.73
2023-07-05T10:07:56.538Z,11.85
2023-07-05T10:10:27.742Z,12.10
2023-07-05T10:13:03.136Z,10.20
2023-07-05T10:15:34.517Z,16.98
2023-07-05T10:18:03.100Z,8.15
2023-07-05T10:20:38.444Z,10.55
2023-07-05T10:23:15.851Z,10.05
2023-07-05T10:25:44.295Z,14.55
2023-07-05T10:28:18.694Z,9.98
2023-07-05T10:30:52.718Z,10.95
2023-07-05T10:33:24.587Z,12.23
2023-07-05T10:35:59.372Z,12.23
2023-07-05T10:38:30.016Z,9.13
2023-07-05T10:41:01.924Z,10.45
2023-07-05T10:43:32.644Z,9.00
2023-07-05T10:46:03.400Z,7.72
2023-07-05T10:48:41.820Z,8.18
2023-07-05T10:51:22.144Z,12.82
2023-07-05T10:53:54.820Z,15.55
2023-07-05T10:56:26.099Z,12.60
2023-07-05T10:59:02.236Z,9.57
2023-07-05T11:01:35.564Z,10.70
2023-07-05T11:04:08.192Z,10.23
2023-07-05T11:06:37.900Z,10.27
2023-07-05T11:09:08.334Z,11.27
2023-07-05T11:11:43.357Z,11.25
2023-07-05T11:14:14.982Z,8.73
2023-07-05T11:16:47.252Z,10.63
2023-07-05T11:19:18.069Z,11.02
2023-07-05T11:21:47.689Z,8.27
2023-07-05T11:24:37.759Z,10.90
2023-07-05T11:27:47.517Z,9.35
2023-07-05T11:30:41.745Z,8.65
2023-07-05T11:33:22.891Z,7.22
2023-07-05T11:35:54.302Z,8.25
2023-07-05T11:38:57.336Z,9.48
2023-07-05T11:41:30.337Z,8.48
2023-07-05T11:44:01.518Z,7.55
2023-07-05T11:46:49.460Z,9.15
2023-07-05T11:49:33.797Z,8.68
2023-07-05T11:52:08.767Z,11.20
2023-07-05T11:54:49.779Z,10.07
2023-07-05T11:57:18.198Z,8.98
2023-07-05T11:59:56.729Z,9.02
2023-07-05T12:02:40.413Z,8.27
2023-07-05T12:05:12.960Z,7.90
2023-07-05T12:07:42.082Z,10.93
2023-07-05T12:10:13.241Z,8.80
2023-07-05T12:12:41.925Z,9.40
2023-07-05T12:15:12.603Z,9.20
2023-07-05T12:17:43.186Z,9.90
2023-07-05T12:20:30.662Z,8.52
2023-07-05T12:23:00.272Z,10.13
2023-07-05T12:25:29.558Z,10.73
2023-07-05T12:27:57.649Z,8.63
2023-07-05T12:30:27.190Z,12.15
2023-07-05T12:32:58.552Z,9.05
2023-07-05T12:35:28.632Z,8.02
2023-07-05T12:37:59.674Z,8.00
2023-07-05T12:40:31.411Z,10.85
2023-07-05T12:43:01.548Z,8.23
2023-07-05T12:45:32.178Z,9.80
2023-07-05T12:48:15.882Z,9.77
2023-07-05T12:50:45.035Z,12.77
2023-07-05T12:53:20.599Z,11.05
2023-07-05T12:55:56.679Z,7.70
2023-07-05T12:58:28.148Z,11.38
2023-07-05T13:00:59.110Z,10.05
2023-07-05T13:03:32.498Z,9.13
2023-07-05T13:06:03.546Z,10.93
2023-07-05T13:08:32.629Z,8.20
2023-07-05T13:11:00.842Z,9.10
2023-07-05T13:13:35.432Z,8.73
2023-07-05T13:16:24.224Z,9.43
2023-07-05T13:19:03.222Z,9.02
2023-07-05T13:21:43.753Z,10.70
2023-07-05T13:24:20.153Z,8.57
2023-07-05T13:26:49.354Z,9.73
2023-07-05T13:29:25.388Z,11.30
2023-07-05T13:31:55.554Z,9.55
2023-07-05T13:34:26.221Z,11.18
2023-07-05T13:37:00.656Z,10.70
2023-07-05T13:39:29.993Z,8.50
2023-07-05T13:41:59.517Z,9.07
2023-07-05T13:44:27.668Z,7.53
2023-07-05T13:46:55.777Z,7.22
2023-07-05T13:49:25.995Z,11.02
2023-07-05T13:51:57.295Z,8.90
2023-07-05T13:54:25.813Z,9.65
2023-07-05T13:56:53.894Z,9.45
2023-07-05T13:59:22.272Z,10.93
2023-07-05T14:01:51.082Z,8.85
2023-07-05T14:04:20.008Z,7.35
2023-07-05T14:06:49.458Z,11.02
2023-07-05T14:09:18.285Z,8.65
2023-07-05T14:11:47.573Z,11.20
2023-07-05T14:14:17.071Z,11.73
2023-07-05T14:16:45.572Z,8.90
2023-07-05T14:19:13.917Z,8.85
2023-07-05T14:21:42.406Z,10.45
2023-07-05T14:24:14.711Z,8.55
2023-07-05T14:26:42.948Z,7.70
2023-07-05T14:29:10.982Z,9.65
2023-07-05T14:31:39.187Z,8.30
2023-07-05T14:34:07.281Z,10.20
2023-07-05T14:36:35.921Z,9.45
2023-07-05T14:39:03.982Z,10.18
2023-07-05T14:41:36.027Z,9.95
2023-07-05T14:44:04.024Z,13.88
2023-07-05T14:46:32.024Z,10.95
2023-07-05T14:49:00.075Z,13.25
2023-07-05T14:51:29.039Z,13.10
2023-07-05T14:53:57.487Z,11.65
2023-07-05T14:56:25.576Z,11.98
2023-07-05T14:58:54.904Z,12.45
2023-07-05T15:01:23.228Z,13.40
2023-07-05T15:03:52.174Z,12.07
2023-07-05T15:06:20.552Z,9.93
2023-07-05T15:08:50.423Z,10.65
2023-07-05T15:11:18.920Z,10.68
2023-07-05T15:13:48.192Z,11.20
2023-07-05T15:16:20.869Z,12.77
2023-07-05T15:18:50.307Z,11.13
2023-07-05T15:21:20.806Z,8.68
2023-07-05T15:23:52.842Z,7.93
2023-07-05T15:26:21.984Z,9.18
2023-07-05T15:28:51.669Z,8.98
2023-07-05T15:31:22.098Z,11.25
2023-07-05T15:33:50.302Z,9.52
2023-07-05T15:36:19.716Z,10.20
2023-07-05T15:38:48.241Z,8.95
2023-07-05T15:41:16.261Z,7.63
2023-07-05T15:43:44.321Z,7.63
2023-07-05T15:46:12.340Z,9.13
2023-07-05T15:48:43.362Z,10.13
2023-07-05T15:51:12.753Z,11.23
2023-07-05T15:53:40.983Z,8.23
2023-07-05T15:56:09.010Z,12.75
2023-07-05T15:58:43.623Z,9.10
2023-07-05T16:01:14.593Z,10.07
2023-07-05T16:03:44.527Z,9.38
2023-07-05T16:06:14.041Z,8.02
2023-07-05T16:08:42.112Z,8.57
2023-07-05T16:11:13.554Z,8.85
2023-07-05T16:13:41.910Z,8.55
2023-07-05T16:16:09.994Z,10.15
2023-07-05T16:18:38.417Z,14.30
2023-07-05T16:21:08.149Z,13.82
2023-07-05T16:23:36.254Z,11.88
2023-07-05T16:26:04.298Z,9.55
2023-07-05T16:28:32.342Z,11.38
2023-07-05T16:31:04.325Z,10.73
2023-07-05T16:33:32.525Z,9.80
2023-07-05T16:36:02.106Z,7.68
2023-07-05T16:38:31.729Z,8.05
2023-07-05T16:41:01.019Z,8.98
2023-07-05T16:43:29.588Z,12.60
2023-07-05T16:45:59.344Z,8.95
2023-07-05T16:48:27.556Z,11.60
2023-07-05T16:50:56.367Z,8.05
2023-07-05T16:53:25.862Z,9.55
2023-07-05T16:55:57.842Z,10.70
2023-07-05T16:58:26.819Z,12.07
2023-07-05T17:00:59.055Z,11.60
2023-07-05T17:03:30.312Z,9.98
2023-07-05T17:05:59.508Z,9.45
2023-07-05T17:08:27.697Z,9.23
2023-07-05T17:10:59.974Z,12.00
2023-07-05T17:13:28.732Z,10.13
2023-07-05T17:15:58.399Z,10.70
2023-07-05T17:18:26.702Z,12.75
2023-07-05T17:20:56.044Z,7.57
2023-07-05T17:23:26.152Z,7.38
2023-07-05T17:26:00.685Z,7.82
2023-07-05T17:28:30.240Z,9.00
2023-07-05T17:31:03.833Z,10.18
2023-07-05T17:33:33.331Z,8.30
2023-07-05T17:36:01.556Z,9.38
2023-07-05T17:38:31.467Z,7.80
2023-07-05T17:41:00.926Z,9.85
2023-07-05T17:43:31.837Z,8.38
2023-07-05T17:46:14.924Z,9.93
2023-07-05T17:48:42.948Z,9.02
2023-07-05T17:51:11.091Z,8.13
2023-07-05T17:53:39.077Z,9.98
2023-07-05T17:56:09.680Z,8.07
2023-07-05T17:58:40.214Z,11.70
2023-07-05T18:01:10.494Z,9.07
2023-07-05T18:03:38.894Z,13.35
2023-07-05T18:06:07.343Z,14.38
2023-07-05T18:08:35.470Z,8.75
2023-07-05T18:11:05.997Z,11.85
2023-07-05T18:13:37.751Z,12.43
2023-07-05T18:16:09.065Z,12.20
2023-07-05T18:18:37.104Z,13.38
2023-07-05T18:21:07.875Z,11.63
2023-07-05T18:23:38.220Z,12.93
2023-07-05T18:26:09.235Z,18.08
2023-07-05T18:28:38.848Z,14.13
2023-07-05T18:31:07.649Z,20.08
2023-07-05T18:33:36.762Z,13.30
2023-07-05T18:36:05.915Z,13.82
2023-07-05T18:38:34.190Z,11.98
2023-07-05T18:41:05.955Z,12.48
2023-07-05T18:43:34.003Z,12.00
2023-07-05T18:46:03.363Z,16.42
2023-07-05T18:48:31.447Z,11.80
2023-07-05T18:51:00.592Z,14.88
2023-07-05T18:53:31.043Z,10.65
2023-07-05T18:56:01.482Z,11.50
2023-07-05T18:58:30.143Z,12.50
2023-07-05T19:00:59.735Z,11.65
2023-07-05T19:03:30.413Z,11.75
2023-07-05T19:06:02.759Z,10.77
2023-07-05T19:08:31.636Z,12.63
2023-07-05T19:11:01.017Z,12.63
2023-07-05T19:13:29.896Z,11.98
2023-07-05T19:15:58.779Z,10.07
2023-07-05T19:18:28.648Z,10.63
2023-07-05T19:20:58.350Z,9.98
2023-07-05T19:23:26.564Z,13.80
2023-07-05T19:25:57.522Z,11.23
2023-07-05T19:28:26.766Z,10.68
2023-07-05T19:30:57.094Z,8.73
2023-07-05T19:33:25.724Z,8.80
2023-07-05T19:35:55.775Z,10.40
2023-07-05T19:38:24.061Z,10.80
2023-07-05T19:40:54.568Z,10.80
2023-07-05T19:43:25.042Z,9.43
2023-07-05T19:45:54.330Z,10.30
2023-07-05T19:48:23.193Z,11.65
2023-07-05T19:50:51.315Z,11.65
2023-07-05T19:53:20.660Z,9.18
2023-07-05T19:55:49.925Z,12.00
2023-07-05T19:58:17.898Z,10.00
2023-07-05T20:00:46.243Z,9.40
2023-07-05T20:03:14.437Z,9.48
2023-07-05T20:05:42.515Z,11.65
2023-07-05T20:08:11.014Z,8.88
2023-07-05T20:10:40.368Z,8.45
2023-07-05T20:13:08.821Z,10.38
2023-07-05T20:15:37.151Z,10.18
2023-07-05T20:18:06.000Z,9.68
2023-07-05T20:20:35.146Z,11.60
2023-07-05T20:23:03.298Z,8.80
2023-07-05T20:25:31.469Z,11.25
2023-07-05T20:28:00.819Z,10.93
2023-07-05T20:30:29.038Z,7.90
2023-07-05T20:32:57.804Z,10.63
2023-07-05T20:35:26.561Z,9.30
2023-07-05T20:38:00.018Z,8.02
2023-07-05T20:40:32.101Z,8.93
2023-07-05T20:43:01.538Z,9.02
2023-07-05T20:45:29.576Z,8.63
2023-07-05T20:47:57.597Z,9.70
2023-07-05T20:50:25.686Z,7.68
2023-07-05T20:52:53.670Z,9.25
2023-07-05T20:55:22.180Z,9.65
2023-07-05T20:57:50.214Z,10.02
2023-07-05T21:00:20.213Z,11.10
2023-07-05T21:02:48.198Z,10.98
2023-07-05T21:05:18.304Z,7.88
2023-07-05T21:07:50.392Z,10.07
2023-07-05T21:10:19.939Z,7.90
2023-07-05T21:12:49.379Z,10.57
2023-07-05T21:15:17.395Z,9.65
2023-07-05T21:17:46.829Z,10.55
2023-07-05T21:20:14.841Z,8.15
2023-07-05T21:22:42.896Z,9.70
2023-07-05T21:25:10.873Z,9.07
2023-07-05T21:27:39.125Z,11.30
2023-07-05T21:30:08.714Z,10.80
2023-07-05T21:32:36.803Z,10.43
2023-07-05T21:35:07.021Z,10.00
2023-07-05T21:37:37.752Z,12.82
2023-07-05T21:40:10.185Z,13.15
2023-07-05T21:42:38.630Z,9.52
2023-07-05T21:45:07.424Z,13.18
2023-07-05T21:47:38.923Z,11.85
2023-07-05T21:50:09.690Z,9.18
2023-07-05T21:52:37.734Z,13.70
2023-07-05T21:55:06.508Z,10.73
2023-07-05T21:57:34.781Z,9.60
2023-07-05T22:00:08.270Z,10.02
2023-07-05T22:02:37.329Z,9.98
2023-07-05T22:05:05.796Z,9.82
2023-07-05T22:07:35.193Z,15.52
2023-07-05T22:10:03.207Z,13.30
2023-07-05T22:12:31.612Z,12.32
2023-07-05T22:15:00.690Z,12.30
2023-07-05T22:17:29.657Z,13.45
2023-07-05T22:19:57.763Z,11.85
2023-07-05T22:22:25.764Z,10.68
2023-07-05T22:24:55.144Z,12.90
2023-07-05T22:27:23.211Z,11.82
2023-07-05T22:29:51.227Z,9.82
2023-07-05T22:32:19.234Z,11.15
2023-07-05T22:34:47.225Z,12.52
2023-07-05T22:37:15.229Z,10.82
2023-07-05T22:39:43.210Z,12.80
2023-07-05T22:42:12.569Z,13.68
2023-07-05T22:44:43.900Z,12.73
2023-07-05T22:47:11.946Z,10.43
2023-07-05T22:49:40.263Z,11.18
2023-07-05T22:52:09.138Z,11.00
2023-07-05T22:54:37.194Z,12.27
2023-07-05T22:57:06.186Z,12.20
2023-07-05T22:59:36.461Z,9.75
2023-07-05T23:02:04.692Z,15.90
2023-07-05T23:04:33.789Z,14.85
2023-07-05T23:07:04.161Z,13.98
2023-07-05T23:09:32.659Z,12.20
2023-07-05T23:12:00.655Z,13.10
2023-07-05T23:14:28.645Z,12.75
2023-07-05T23:16:58.572Z,12.50
2023-07-05T23:19:28.265Z,10.63
2023-07-05T23:21:57.341Z,11.15
2023-07-05T23:24:25.315Z,13.45
2023-07-05T23:26:53.510Z,12.68
2023-07-05T23:29:21.566Z,12.13
2023-07-05T23:31:50.450Z,13.63
2023-07-05T23:34:20.824Z,11.95
2023-07-05T23:36:49.667Z,10.98
2023-07-05T23:39:17.647Z,14.00
2023-07-05T23:41:47.352Z,10.88
2023-07-05T23:44:16.425Z,12.63
2023-07-05T23:46:44.542Z,11.32
2023-07-05T23:49:14.523Z,10.45
2023-07-05T23:51:44.321Z,11.70
2023-07-05T23:54:13.126Z,11.43
2023-07-05T23:56:48.248Z,11.57
2023-07-05T23:59:17.055Z,12.95
